createdAt,value
2022-08-25T00:00:23.280Z,100949.22
2022-08-25T00:03:25.630Z,100953.56
2022-08-25T00:06:28.734Z,100946.72
2022-08-25T00:09:32.699Z,100955.34
2022-08-25T00:12:34.400Z,100945.13
2022-08-25T00:15:36.722Z,100947.31
2022-08-25T00:18:39.914Z,100955.94
2022-08-25T00:21:43.728Z,100952.81
2022-08-25T00:24:45.800Z,100957.69
2022-08-25T00:27:48.574Z,100958.19
2022-08-25T00:30:50.337Z,100949.66
2022-08-25T00:33:53.841Z,100949.09
2022-08-25T00:36:55.823Z,100947.84
2022-08-25T00:39:58.693Z,100957.31
2022-08-25T00:43:00.604Z,100951.66
2022-08-25T00:46:02.994Z,100941.06
2022-08-25T00:49:36.341Z,100945.78
2022-08-25T00:52:42.447Z,100949.97
2022-08-25T00:55:44.300Z,100942.09
2022-08-25T00:58:46.218Z,100952.13
2022-08-25T01:01:49.402Z,100955.28
2022-08-25T01:04:51.196Z,100954.03
2022-08-25T01:07:58.650Z,100944.66
2022-08-25T01:11:04.958Z,100946.13
2022-08-25T01:14:07.488Z,100944.38
2022-08-25T01:17:09.611Z,100937.56
2022-08-25T01:20:11.531Z,100945.31
2022-08-25T01:23:13.139Z,100940.03
2022-08-25T01:26:25.093Z,100933.34
2022-08-25T01:29:33.357Z,100940.06
2022-08-25T01:32:35.170Z,100940.69
2022-08-25T01:35:37.798Z,100941.13
2022-08-25T01:38:39.673Z,100943.28
2022-08-25T01:41:41.342Z,100948.31
2022-08-25T01:44:45.222Z,100941.16
2022-08-25T01:47:46.828Z,100943.72
2022-08-25T01:50:49.917Z,100935.72
2022-08-25T01:53:51.696Z,100937.59
2022-08-25T01:56:53.314Z,100940.47
2022-08-25T01:59:54.933Z,100936.19
2022-08-25T02:02:57.546Z,100937.47
2022-08-25T02:06:01.410Z,100938.09
2022-08-25T02:09:10.044Z,100939.38
2022-08-25T02:12:12.261Z,100936.09
2022-08-25T02:15:14.497Z,100944.38
2022-08-25T02:18:17.408Z,100945.50
2022-08-25T02:21:19.076Z,100943.81
2022-08-25T02:24:20.975Z,100936.81
2022-08-25T02:27:23.430Z,100941.34
2022-08-25T02:30:25.575Z,100941.53
2022-08-25T02:33:27.263Z,100945.22
2022-08-25T02:36:29.942Z,100939.66
2022-08-25T02:39:31.624Z,100938.50
2022-08-25T02:42:33.611Z,100942.25
2022-08-25T02:45:36.746Z,100939.53
2022-08-25T02:48:39.750Z,100932.94
2022-08-25T02:51:41.406Z,100932.38
2022-08-25T02:54:43.019Z,100930.97
2022-08-25T02:57:44.878Z,100926.81
2022-08-25T03:00:47.486Z,100930.69
2022-08-25T03:03:49.769Z,100931.84
2022-08-25T03:06:51.470Z,100930.69
2022-08-25T03:09:54.267Z,100929.84
2022-08-25T03:12:56.268Z,100924.72
2022-08-25T03:15:59.567Z,100931.00
2022-08-25T03:19:01.535Z,100932.97
2022-08-25T03:22:04.595Z,100931.28
2022-08-25T03:25:25.321Z,100927.00
2022-08-25T03:28:29.910Z,100929.31
2022-08-25T03:31:33.625Z,100930.44
2022-08-25T03:34:35.803Z,100924.44
2022-08-25T03:37:37.915Z,100931.44
2022-08-25T03:40:39.596Z,100923.59
2022-08-25T03:43:41.897Z,100920.16
2022-08-25T03:46:48.773Z,100921.91
2022-08-25T03:49:51.723Z,100917.63
2022-08-25T03:52:56.281Z,100920.47
2022-08-25T03:55:57.935Z,100916.91
2022-08-25T03:59:00.097Z,100918.91
2022-08-25T04:02:02.807Z,100921.75
2022-08-25T04:05:04.848Z,100926.47
2022-08-25T04:08:07.228Z,100921.91
2022-08-25T04:11:13.137Z,100931.00
2022-08-25T04:14:16.537Z,100932.16
2022-08-25T04:17:18.565Z,100931.59
2022-08-25T04:20:20.231Z,100923.75
2022-08-25T04:23:21.850Z,100931.31
2022-08-25T04:26:29.796Z,100928.75
2022-08-25T04:29:31.465Z,100922.91
2022-08-25T04:32:35.274Z,100924.91
2022-08-25T04:35:36.987Z,100919.78
2022-08-25T04:38:41.597Z,100914.19
2022-08-25T04:41:43.880Z,100911.94
2022-08-25T04:44:45.558Z,100915.50
2022-08-25T04:47:49.646Z,100912.78
2022-08-25T04:50:53.401Z,100912.50
2022-08-25T04:54:01.135Z,100907.50
2022-08-25T04:57:02.818Z,100910.78
2022-08-25T05:00:05.747Z,100910.06
2022-08-25T05:03:08.405Z,100918.78
2022-08-25T05:06:15.287Z,100914.91
2022-08-25T05:09:19.884Z,100923.00
2022-08-25T05:12:23.520Z,100922.00
2022-08-25T05:15:45.186Z,100919.25
2022-08-25T05:18:48.535Z,100929.53
2022-08-25T05:21:50.431Z,100925.06
2022-08-25T05:24:52.163Z,100925.03
2022-08-25T05:27:53.881Z,100918.69
2022-08-25T05:31:00.002Z,100918.34
2022-08-25T05:34:06.349Z,100926.66
2022-08-25T05:37:11.972Z,100919.63
2022-08-25T05:40:14.308Z,100922.31
2022-08-25T05:43:16.013Z,100919.59
2022-08-25T05:46:19.601Z,100918.19
2022-08-25T05:49:21.410Z,100913.34
2022-08-25T05:52:23.204Z,100905.47
2022-08-25T05:55:24.837Z,100911.97
2022-08-25T05:58:28.459Z,100912.09
2022-08-25T06:01:48.701Z,100921.25
2022-08-25T06:04:50.324Z,100918.63
2022-08-25T06:07:52.352Z,100916.69
2022-08-25T06:10:54.036Z,100911.81
2022-08-25T06:13:55.618Z,100912.59
2022-08-25T06:16:57.309Z,100912.56
2022-08-25T06:19:59.153Z,100909.91
2022-08-25T06:23:01.672Z,100910.94
2022-08-25T06:26:03.580Z,100908.06
2022-08-25T06:29:05.270Z,100909.34
2022-08-25T06:32:07.041Z,100907.69
2022-08-25T06:35:13.006Z,100915.22
2022-08-25T06:38:14.922Z,100911.94
2022-08-25T06:41:16.707Z,100916.81
2022-08-25T06:44:18.581Z,100906.53
2022-08-25T06:47:20.678Z,100891.94
2022-08-25T06:50:22.431Z,100894.53
2022-08-25T06:53:24.070Z,100896.09
2022-08-25T06:56:26.634Z,100893.78
2022-08-25T06:59:32.265Z,100891.22
2022-08-25T07:02:35.327Z,100898.28
2022-08-25T07:05:44.406Z,100898.41
2022-08-25T07:08:47.395Z,100891.88
2022-08-25T07:11:49.051Z,100885.03
2022-08-25T07:15:10.096Z,100888.09
2022-08-25T07:18:13.368Z,100887.28
2022-08-25T07:21:15.560Z,100884.16
2022-08-25T07:24:18.343Z,100885.47
2022-08-25T07:27:20.540Z,100881.69
2022-08-25T07:30:23.369Z,100889.31
2022-08-25T07:33:25.316Z,100891.38
2022-08-25T07:36:28.284Z,100901.59
2022-08-25T07:39:30.758Z,100898.00
2022-08-25T07:42:33.800Z,100901.69
2022-08-25T07:45:48.141Z,100890.91
2022-08-25T07:48:53.310Z,100900.66
2022-08-25T07:52:05.661Z,100898.19
2022-08-25T07:55:11.086Z,100903.13
2022-08-25T07:58:13.291Z,100911.41
2022-08-25T08:01:20.228Z,100903.50
2022-08-25T08:04:22.343Z,100903.72
2022-08-25T08:07:42.147Z,100901.19
2022-08-25T08:11:04.356Z,100888.31
2022-08-25T08:14:08.403Z,100886.69
2022-08-25T08:17:11.234Z,100888.19
2022-08-25T08:20:13.532Z,100885.41
2022-08-25T08:23:17.559Z,100887.34
2022-08-25T08:26:20.620Z,100883.88
2022-08-25T08:29:23.192Z,100879.19
2022-08-25T08:32:31.463Z,100882.19
2022-08-25T08:35:37.212Z,100881.44
2022-08-25T08:38:41.604Z,100883.03
2022-08-25T08:42:13.128Z,100883.56
2022-08-25T08:45:27.119Z,100862.53
2022-08-25T08:48:44.790Z,100866.00
2022-08-25T08:51:56.310Z,100868.16
2022-08-25T08:55:02.940Z,100867.16
2022-08-25T08:58:46.823Z,100858.97
2022-08-25T09:02:03.885Z,100851.06
2022-08-25T09:05:14.886Z,100853.25
2022-08-25T09:08:20.416Z,100861.72
2022-08-25T09:11:40.983Z,100852.00
2022-08-25T09:14:42.617Z,100841.66
2022-08-25T09:18:18.701Z,100836.88
2022-08-25T09:21:36.270Z,100838.31
2022-08-25T09:24:37.893Z,100832.59
2022-08-25T09:27:44.253Z,100830.25
2022-08-25T09:30:57.707Z,100829.78
2022-08-25T09:34:03.684Z,100828.59
2022-08-25T09:37:05.817Z,100827.72
2022-08-25T09:40:12.189Z,100828.59
2022-08-25T09:43:29.855Z,100822.63
2022-08-25T09:46:31.765Z,100818.44
2022-08-25T09:50:04.538Z,100827.47
2022-08-25T09:53:14.786Z,100819.47
2022-08-25T09:56:23.404Z,100806.34
2022-08-25T09:59:35.738Z,100797.47
2022-08-25T10:02:38.472Z,100802.56
2022-08-25T10:05:49.354Z,100801.25
2022-08-25T10:09:02.046Z,100795.53
2022-08-25T10:12:27.963Z,100789.16
2022-08-25T10:15:37.876Z,100790.06
2022-08-25T10:18:39.820Z,100789.41
2022-08-25T10:21:44.728Z,100782.22
2022-08-25T10:24:46.601Z,100769.91
2022-08-25T10:28:15.927Z,100768.44
2022-08-25T10:31:45.243Z,100757.22
2022-08-25T10:34:54.861Z,100758.47
2022-08-25T10:38:02.731Z,100759.09
2022-08-25T10:41:23.233Z,100747.88
2022-08-25T10:44:58.748Z,100741.34
2022-08-25T10:48:15.640Z,100740.06
2022-08-25T10:51:43.211Z,100723.13
2022-08-25T10:54:59.237Z,100727.91
2022-08-25T10:58:30.808Z,100723.84
2022-08-25T11:02:02.742Z,100720.28
2022-08-25T11:05:12.739Z,100711.19
2022-08-25T11:08:23.060Z,100716.00
2022-08-25T11:11:36.973Z,100706.03
2022-08-25T11:14:56.224Z,100693.06
2022-08-25T11:18:17.105Z,100686.66
2022-08-25T11:21:26.179Z,100687.56
2022-08-25T11:24:54.093Z,100683.84
2022-08-25T11:28:16.374Z,100679.81
2022-08-25T11:31:20.088Z,100677.50
2022-08-25T11:34:22.739Z,100675.00
2022-08-25T11:37:30.702Z,100679.38
2022-08-25T11:40:50.087Z,100666.25
2022-08-25T11:44:54.033Z,100664.41
2022-08-25T11:48:26.910Z,100670.53
2022-08-25T11:51:33.920Z,100655.59
2022-08-25T11:54:44.581Z,100661.16
2022-08-25T11:57:53.409Z,100659.06
2022-08-25T12:00:58.564Z,100658.63
2022-08-25T12:04:33.557Z,100658.63
2022-08-25T12:07:52.100Z,100649.00
2022-08-25T12:11:10.881Z,100653.16
2022-08-25T12:14:18.305Z,100655.56
2022-08-25T12:17:28.239Z,100649.31
2022-08-25T12:20:55.143Z,100638.13
2022-08-25T12:24:03.084Z,100640.78
2022-08-25T12:27:08.837Z,100644.66
2022-08-25T12:30:22.796Z,100634.72
2022-08-25T12:33:49.792Z,100637.06
2022-08-25T12:37:13.783Z,100628.25
2022-08-25T12:40:34.903Z,100620.47
2022-08-25T12:43:45.321Z,100625.00
2022-08-25T12:46:51.290Z,100620.00
2022-08-25T12:50:13.634Z,100620.06
2022-08-25T12:53:38.537Z,100607.53
2022-08-25T12:56:50.241Z,100615.16
2022-08-25T13:00:01.128Z,100614.09
2022-08-25T13:04:09.390Z,100610.22
2022-08-25T13:07:23.246Z,100600.91
2022-08-25T13:10:57.411Z,100590.06
2022-08-25T13:14:22.466Z,100587.53
2022-08-25T13:17:28.999Z,100587.03
2022-08-25T13:20:30.980Z,100587.72
2022-08-25T13:23:38.276Z,100586.22
2022-08-25T13:26:48.175Z,100585.75
2022-08-25T13:30:03.703Z,100580.63
2022-08-25T13:33:20.732Z,100578.72
2022-08-25T13:36:52.090Z,100574.13
2022-08-25T13:40:18.741Z,100574.84
2022-08-25T13:43:27.462Z,100571.66
2022-08-25T13:46:35.551Z,100574.63
2022-08-25T13:49:39.939Z,100570.13
2022-08-25T13:52:45.168Z,100564.38
2022-08-25T13:55:59.804Z,100570.63
2022-08-25T13:59:03.866Z,100569.16
2022-08-25T14:02:09.501Z,100555.91
2022-08-25T14:05:42.655Z,100564.31
2022-08-25T14:09:03.650Z,100554.59
2022-08-25T14:12:07.576Z,100549.78
2022-08-25T14:15:17.289Z,100543.41
2022-08-25T14:18:26.987Z,100539.19
2022-08-25T14:21:31.335Z,100540.28
2022-08-25T14:24:40.933Z,100535.84
2022-08-25T14:28:06.776Z,100531.53
2022-08-25T14:31:17.947Z,100533.41
2022-08-25T14:34:36.704Z,100514.63
2022-08-25T14:37:38.498Z,100521.81
2022-08-25T14:40:42.273Z,100522.75
2022-08-25T14:43:44.390Z,100519.28
2022-08-25T14:46:54.187Z,100524.56
2022-08-25T14:49:55.865Z,100516.13
2022-08-25T14:52:58.259Z,100511.91
2022-08-25T14:56:01.400Z,100505.63
2022-08-25T14:59:12.676Z,100506.78
2022-08-25T15:02:19.885Z,100510.28
2022-08-25T15:05:29.312Z,100503.25
2022-08-25T15:08:50.893Z,100494.34
2022-08-25T15:11:56.900Z,100487.47
2022-08-25T15:14:58.572Z,100493.38
2022-08-25T15:18:01.267Z,100484.94
2022-08-25T15:21:03.502Z,100481.97
2022-08-25T15:24:07.056Z,100483.63
2022-08-25T15:27:20.439Z,100478.03
2022-08-25T15:30:30.983Z,100467.84
2022-08-25T15:33:36.065Z,100473.97
2022-08-25T15:36:37.976Z,100469.75
2022-08-25T15:39:41.974Z,100470.09
2022-08-25T15:42:49.282Z,100463.53
2022-08-25T15:45:51.588Z,100467.84
2022-08-25T15:48:53.376Z,100471.44
2022-08-25T15:51:56.681Z,100457.69
2022-08-25T15:54:59.900Z,100463.69
2022-08-25T15:58:04.933Z,100454.06
2022-08-25T16:01:07.240Z,100461.72
2022-08-25T16:04:12.119Z,100456.88
2022-08-25T16:07:13.840Z,100463.09
2022-08-25T16:10:17.748Z,100444.72
2022-08-25T16:13:19.571Z,100445.75
2022-08-25T16:16:25.506Z,100444.31
2022-08-25T16:19:33.380Z,100439.88
2022-08-25T16:22:39.829Z,100444.78
2022-08-25T16:25:52.873Z,100432.44
2022-08-25T16:28:59.909Z,100428.63
2022-08-25T16:32:06.976Z,100431.97
2022-08-25T16:35:11.002Z,100436.44
2022-08-25T16:38:13.194Z,100432.84
2022-08-25T16:41:22.625Z,100432.22
2022-08-25T16:44:24.561Z,100424.78
2022-08-25T16:47:28.614Z,100430.31
2022-08-25T16:50:31.147Z,100417.19
2022-08-25T16:53:54.851Z,100419.28
2022-08-25T16:57:00.754Z,100420.03
2022-08-25T17:00:04.784Z,100421.72
2022-08-25T17:03:06.847Z,100413.06
2022-08-25T17:06:08.797Z,100420.09
2022-08-25T17:09:12.630Z,100423.53
2022-08-25T17:12:16.906Z,100422.50
2022-08-25T17:15:23.790Z,100420.19
2022-08-25T17:18:25.866Z,100419.81
2022-08-25T17:21:31.417Z,100420.63
2022-08-25T17:24:33.872Z,100424.31
2022-08-25T17:27:35.977Z,100420.28
2022-08-25T17:30:39.064Z,100429.47
2022-08-25T17:33:42.395Z,100426.53
2022-08-25T17:36:44.212Z,100426.34
2022-08-25T17:39:46.088Z,100425.78
2022-08-25T17:42:48.054Z,100422.41
2022-08-25T17:45:50.345Z,100422.72
2022-08-25T17:48:55.317Z,100419.13
2022-08-25T17:51:57.222Z,100417.03
2022-08-25T17:54:59.053Z,100421.72
2022-08-25T17:58:02.981Z,100418.75
2022-08-25T18:01:05.580Z,100418.13
2022-08-25T18:04:07.969Z,100421.19
2022-08-25T18:07:19.688Z,100441.13
2022-08-25T18:10:21.454Z,100433.53
2022-08-25T18:13:23.948Z,100436.97
2022-08-25T18:16:26.740Z,100437.88
2022-08-25T18:19:28.502Z,100435.97
2022-08-25T18:22:31.993Z,100435.78
2022-08-25T18:25:34.754Z,100438.59
2022-08-25T18:28:36.470Z,100442.22
2022-08-25T18:31:38.257Z,100442.75
2022-08-25T18:34:40.368Z,100438.28
2022-08-25T18:38:00.769Z,100449.56
2022-08-25T18:41:06.482Z,100451.31
2022-08-25T18:44:10.634Z,100449.66
2022-08-25T18:47:12.614Z,100450.75
2022-08-25T18:50:15.301Z,100451.81
2022-08-25T18:53:17.993Z,100460.28
2022-08-25T18:56:33.376Z,100459.50
2022-08-25T18:59:35.280Z,100456.75
2022-08-25T19:02:37.076Z,100455.53
2022-08-25T19:05:41.486Z,100459.56
2022-08-25T19:08:46.970Z,100466.16
2022-08-25T19:11:49.105Z,100450.34
2022-08-25T19:14:51.065Z,100445.03
2022-08-25T19:17:53.767Z,100456.25
2022-08-25T19:20:55.451Z,100462.63
2022-08-25T19:23:57.175Z,100463.47
2022-08-25T19:27:02.324Z,100459.66
2022-08-25T19:30:07.261Z,100459.25
2022-08-25T19:33:11.527Z,100456.91
2022-08-25T19:36:14.447Z,100454.53
2022-08-25T19:39:16.447Z,100467.41
2022-08-25T19:42:37.345Z,100457.47
2022-08-25T19:45:40.913Z,100460.44
2022-08-25T19:48:42.708Z,100467.16
2022-08-25T19:51:51.142Z,100460.78
2022-08-25T19:54:53.528Z,100469.22
2022-08-25T19:57:55.376Z,100470.91
2022-08-25T20:00:57.073Z,100465.78
2022-08-25T20:03:58.805Z,100469.38
2022-08-25T20:07:00.737Z,100480.06
2022-08-25T20:10:05.953Z,100478.13
2022-08-25T20:13:08.876Z,100478.34
2022-08-25T20:16:10.909Z,100477.66
2022-08-25T20:19:12.999Z,100473.84
2022-08-25T20:22:18.684Z,100478.44
2022-08-25T20:25:24.439Z,100481.56
2022-08-25T20:28:26.265Z,100477.75
2022-08-25T20:31:29.533Z,100478.53
2022-08-25T20:34:31.649Z,100481.91
2022-08-25T20:37:34.370Z,100475.31
2022-08-25T20:40:36.264Z,100478.88
2022-08-25T20:43:40.160Z,100475.88
2022-08-25T20:46:41.830Z,100480.53
2022-08-25T20:49:44.842Z,100481.53
2022-08-25T20:52:46.507Z,100487.03
2022-08-25T20:55:50.382Z,100491.00
2022-08-25T20:58:52.188Z,100487.16
2022-08-25T21:01:55.133Z,100488.63
2022-08-25T21:04:57.614Z,100483.91
2022-08-25T21:07:59.296Z,100487.22
2022-08-25T21:11:00.902Z,100489.72
2022-08-25T21:14:03.044Z,100497.69
2022-08-25T21:17:10.554Z,100492.81
2022-08-25T21:20:13.666Z,100479.47
2022-08-25T21:23:15.292Z,100486.56
2022-08-25T21:26:19.608Z,100491.13
2022-08-25T21:29:23.270Z,100487.66
2022-08-25T21:32:25.853Z,100482.31
2022-08-25T21:35:28.355Z,100478.34
2022-08-25T21:38:31.526Z,100481.03
2022-08-25T21:41:34.932Z,100475.28
2022-08-25T21:44:38.620Z,100487.00
2022-08-25T21:47:42.472Z,100477.66
2022-08-25T21:50:44.386Z,100487.94
2022-08-25T21:53:47.317Z,100476.94
2022-08-25T21:56:50.981Z,100477.78
2022-08-25T21:59:52.633Z,100476.09
2022-08-25T22:02:54.477Z,100479.69
2022-08-25T22:05:57.230Z,100466.19
2022-08-25T22:08:58.888Z,100467.91
2022-08-25T22:12:00.762Z,100467.03
2022-08-25T22:15:05.976Z,100467.53
2022-08-25T22:18:07.658Z,100460.34
2022-08-25T22:21:09.776Z,100459.31
2022-08-25T22:24:12.804Z,100460.34
2022-08-25T22:27:15.523Z,100454.50
2022-08-25T22:30:18.774Z,100453.63
2022-08-25T22:33:20.393Z,100445.44
2022-08-25T22:36:28.483Z,100444.19
2022-08-25T22:39:30.974Z,100453.06
2022-08-25T22:42:33.777Z,100451.00
2022-08-25T22:45:35.909Z,100449.50
2022-08-25T22:48:38.584Z,100446.88
2022-08-25T22:51:40.341Z,100444.88
2022-08-25T22:54:42.190Z,100447.56
2022-08-25T22:57:44.026Z,100445.56
2022-08-25T23:00:46.493Z,100447.00
2022-08-25T23:03:48.626Z,100448.25
2022-08-25T23:06:50.630Z,100445.22
2022-08-25T23:09:53.038Z,100436.94
2022-08-25T23:12:54.677Z,100438.81
2022-08-25T23:15:56.287Z,100442.78
2022-08-25T23:18:58.695Z,100452.88
2022-08-25T23:22:10.601Z,100442.97
2022-08-25T23:25:12.513Z,100436.84
2022-08-25T23:28:15.300Z,100435.97
2022-08-25T23:31:17.936Z,100441.28
2022-08-25T23:34:19.587Z,100433.22
2022-08-25T23:37:21.286Z,100433.63
2022-08-25T23:40:23.014Z,100430.81
2022-08-25T23:43:25.994Z,100434.78
2022-08-25T23:46:29.562Z,100428.81
2022-08-25T23:49:31.186Z,100421.84
2022-08-25T23:52:33.381Z,100422.91
2022-08-25T23:55:35.950Z,100421.78
2022-08-25T23:58:37.620Z,100418.16
